createdAt,value
2023-04-25T00:03:22.025Z,99707.91
2023-04-25T00:06:44.114Z,99716.06
2023-04-25T00:10:07.452Z,99711.22
2023-04-25T00:13:31.094Z,99710.06
2023-04-25T00:16:55.050Z,99713.06
2023-04-25T00:20:16.783Z,99710.09
2023-04-25T00:23:40.114Z,99694.16
2023-04-25T00:27:02.296Z,99710.38
2023-04-25T00:30:25.810Z,99702.19
2023-04-25T00:33:47.706Z,99698.28
2023-04-25T00:37:10.054Z,99697.81
2023-04-25T00:40:32.004Z,99707.63
2023-04-25T00:43:56.216Z,99698.41
2023-04-25T00:47:20.482Z,99700.47
2023-04-25T00:50:43.648Z,99697.38
2023-04-25T00:54:05.790Z,99708.13
2023-04-25T00:57:28.027Z,99705.81
2023-04-25T01:00:51.683Z,99705.06
2023-04-25T01:04:15.870Z,99703.47
2023-04-25T01:07:38.165Z,99707.22
2023-04-25T01:11:00.282Z,99705.72
2023-04-25T01:14:22.233Z,99707.69
2023-04-25T01:17:44.031Z,99711.31
2023-04-25T01:21:11.798Z,99703.66
2023-04-25T01:24:35.102Z,99699.00
2023-04-25T01:27:58.225Z,99702.56
2023-04-25T01:31:21.743Z,99705.44
2023-04-25T01:34:43.636Z,99697.97
2023-04-25T01:38:06.808Z,99700.78
2023-04-25T01:41:29.225Z,99701.91
2023-04-25T01:44:51.251Z,99690.22
2023-04-25T01:48:14.336Z,99693.66
2023-04-25T01:51:36.520Z,99695.56
2023-04-25T01:55:01.854Z,99691.44
2023-04-25T01:58:23.654Z,99685.53
2023-04-25T02:01:45.389Z,99694.03
2023-04-25T02:05:07.919Z,99694.97
2023-04-25T02:08:29.520Z,99698.53
2023-04-25T02:11:52.564Z,99686.38
2023-04-25T02:15:14.822Z,99691.53
2023-04-25T02:18:38.179Z,99684.53
2023-04-25T02:21:59.813Z,99682.09
2023-04-25T02:25:22.381Z,99678.34
2023-04-25T02:28:45.751Z,99677.44
2023-04-25T02:32:07.796Z,99675.03
2023-04-25T02:35:30.009Z,99677.44
2023-04-25T02:38:53.194Z,99679.94
2023-04-25T02:42:15.245Z,99669.69
2023-04-25T02:45:38.914Z,99666.31
2023-04-25T02:49:00.679Z,99675.19
2023-04-25T02:52:22.512Z,99665.94
2023-04-25T02:55:44.328Z,99674.34
2023-04-25T02:59:06.227Z,99674.44
2023-04-25T03:02:29.380Z,99671.72
2023-04-25T03:05:51.653Z,99659.59
2023-04-25T03:09:13.917Z,99667.38
2023-04-25T03:12:35.823Z,99669.97
2023-04-25T03:15:57.874Z,99665.66
2023-04-25T03:19:21.536Z,99668.09
2023-04-25T03:22:43.325Z,99663.63
2023-04-25T03:26:05.363Z,99665.22
2023-04-25T03:29:28.799Z,99665.94
2023-04-25T03:32:50.955Z,99665.69
2023-04-25T03:36:14.303Z,99669.06
2023-04-25T03:39:36.301Z,99664.53
2023-04-25T03:42:57.897Z,99659.88
2023-04-25T03:46:19.882Z,99656.97
2023-04-25T03:49:41.411Z,99656.63
2023-04-25T03:53:04.644Z,99662.41
2023-04-25T03:56:26.569Z,99660.34
2023-04-25T03:59:48.432Z,99663.41
2023-04-25T04:03:10.487Z,99666.41
2023-04-25T04:06:33.134Z,99674.63
2023-04-25T04:09:56.674Z,99667.09
2023-04-25T04:13:18.809Z,99659.66
2023-04-25T04:16:41.057Z,99652.16
2023-04-25T04:20:03.806Z,99658.19
2023-04-25T04:23:25.861Z,99654.84
2023-04-25T04:26:49.461Z,99647.44
2023-04-25T04:30:11.585Z,99656.81
2023-04-25T04:33:33.336Z,99653.38
2023-04-25T04:36:54.989Z,99649.72
2023-04-25T04:40:17.530Z,99646.91
2023-04-25T04:43:41.779Z,99648.44
2023-04-25T04:47:05.063Z,99656.38
2023-04-25T04:50:27.735Z,99649.34
2023-04-25T04:53:49.824Z,99647.44
2023-04-25T04:57:11.956Z,99638.56
2023-04-25T05:00:35.484Z,99645.84
2023-04-25T05:04:01.725Z,99648.13
2023-04-25T05:07:23.763Z,99657.22
2023-04-25T05:10:45.819Z,99650.81
2023-04-25T05:14:07.459Z,99655.50
2023-04-25T05:17:30.606Z,99654.25
2023-04-25T05:20:52.648Z,99649.03
2023-04-25T05:24:14.264Z,99652.16
2023-04-25T05:27:36.077Z,99651.78
2023-04-25T05:30:57.772Z,99648.06
2023-04-25T05:34:20.970Z,99651.72
2023-04-25T05:37:43.687Z,99651.91
2023-04-25T05:41:05.913Z,99656.06
2023-04-25T05:44:27.990Z,99657.88
2023-04-25T05:47:49.661Z,99643.34
2023-04-25T05:51:13.256Z,99657.09
2023-04-25T05:54:34.959Z,99656.38
2023-04-25T05:57:56.803Z,99653.75
2023-04-25T06:01:18.706Z,99645.72
2023-04-25T06:04:40.538Z,99643.19
2023-04-25T06:08:03.901Z,99657.09
2023-04-25T06:11:26.168Z,99642.78
2023-04-25T06:14:47.854Z,99650.81
2023-04-25T06:18:10.158Z,99650.53
2023-04-25T06:21:32.627Z,99664.31
2023-04-25T06:24:58.286Z,99663.75
2023-04-25T06:28:23.319Z,99664.00
2023-04-25T06:31:45.513Z,99673.41
2023-04-25T06:35:08.580Z,99670.03
2023-04-25T06:38:30.631Z,99672.19
2023-04-25T06:41:54.568Z,99674.78
2023-04-25T06:45:16.511Z,99680.31
2023-04-25T06:48:38.267Z,99669.63
2023-04-25T06:52:00.566Z,99662.56
2023-04-25T06:55:22.710Z,99665.72
2023-04-25T06:58:45.873Z,99667.16
2023-04-25T07:02:08.348Z,99662.97
2023-04-25T07:05:30.380Z,99647.88
2023-04-25T07:08:53.334Z,99656.88
2023-04-25T07:12:15.582Z,99655.94
2023-04-25T07:15:39.012Z,99661.97
2023-04-25T07:19:01.815Z,99660.84
2023-04-25T07:22:24.252Z,99672.63
2023-04-25T07:25:46.207Z,99673.28
2023-04-25T07:29:08.659Z,99665.13
2023-04-25T07:32:31.851Z,99663.22
2023-04-25T07:35:55.102Z,99667.00
2023-04-25T07:39:17.192Z,99667.31
2023-04-25T07:42:39.280Z,99665.25
2023-04-25T07:46:01.412Z,99664.66
2023-04-25T07:49:24.990Z,99667.13
2023-04-25T07:52:47.363Z,99666.31
2023-04-25T07:56:10.409Z,99667.16
2023-04-25T07:59:32.487Z,99654.22
2023-04-25T08:02:54.378Z,99663.00
2023-04-25T08:06:18.239Z,99659.91
2023-04-25T08:09:40.584Z,99651.06
2023-04-25T08:13:02.444Z,99661.78
2023-04-25T08:16:24.244Z,99661.22
2023-04-25T08:19:46.419Z,99670.06
2023-04-25T08:23:09.686Z,99672.59
2023-04-25T08:30:17.806Z,99661.19
2023-04-25T08:33:39.566Z,99674.16
2023-04-25T08:37:01.173Z,99663.38
2023-04-25T08:45:06.902Z,99657.91
2023-04-25T08:48:30.420Z,99654.94
2023-04-25T08:51:54.783Z,99666.44
2023-04-25T08:55:17.852Z,99647.34
2023-04-25T08:58:40.640Z,99650.69
2023-04-25T09:02:04.161Z,99647.34
2023-04-25T09:05:26.534Z,99654.31
2023-04-25T09:08:48.259Z,99647.84
2023-04-25T09:12:10.871Z,99647.84
2023-04-25T09:15:32.520Z,99640.38
2023-04-25T09:18:56.198Z,99635.91
2023-04-25T09:22:22.883Z,99635.38
2023-04-25T09:25:44.666Z,99643.06
2023-04-25T09:29:07.816Z,99642.88
2023-04-25T09:32:30.140Z,99642.72
2023-04-25T09:35:56.516Z,99651.69
2023-04-25T09:39:20.669Z,99652.44
2023-04-25T09:42:44.306Z,99653.91
2023-04-25T09:46:11.022Z,99644.97
2023-04-25T09:49:32.705Z,99649.44
2023-04-25T09:53:07.281Z,99651.28
2023-04-25T09:56:34.419Z,99650.09
2023-04-25T09:59:57.848Z,99659.56
2023-04-25T10:03:22.807Z,99660.19
2023-04-25T10:06:47.388Z,99659.78
2023-04-25T10:10:14.929Z,99656.59
2023-04-25T10:13:38.136Z,99658.09
2023-04-25T10:17:01.557Z,99648.31
2023-04-25T10:20:24.501Z,99662.59
2023-04-25T10:23:47.193Z,99667.59
2023-04-25T10:27:10.760Z,99661.13
2023-04-25T10:30:32.552Z,99660.63
2023-04-25T10:33:55.518Z,99671.56
2023-04-25T10:37:17.366Z,99656.59
2023-04-25T10:40:39.324Z,99665.25
2023-04-25T10:44:03.580Z,99663.47
2023-04-25T10:47:37.670Z,99664.16
2023-04-25T10:51:11.901Z,99659.88
2023-04-25T10:54:33.937Z,99667.34
2023-04-25T10:57:56.142Z,99665.03
2023-04-25T11:01:24.183Z,99666.56
2023-04-25T11:04:47.663Z,99674.16
2023-04-25T11:08:15.218Z,99668.16
2023-04-25T11:11:39.245Z,99673.25
2023-04-25T11:15:02.944Z,99677.84
2023-04-25T11:18:28.713Z,99676.88
2023-04-25T11:21:50.654Z,99671.72
2023-04-25T11:25:14.244Z,99668.78
2023-04-25T11:28:36.042Z,99663.19
2023-04-25T11:31:59.282Z,99663.09
2023-04-25T11:35:24.473Z,99667.31
2023-04-25T11:38:46.012Z,99654.34
2023-04-25T11:42:10.294Z,99641.88
2023-04-25T11:45:35.942Z,99661.84
2023-04-25T11:48:58.527Z,99661.16
2023-04-25T11:52:21.747Z,99663.00
2023-04-25T11:55:44.191Z,99653.66
2023-04-25T11:59:07.979Z,99645.69
2023-04-25T12:02:30.447Z,99646.53
2023-04-25T12:05:53.240Z,99641.88
2023-04-25T12:09:19.087Z,99637.72
2023-04-25T12:12:44.659Z,99641.38
2023-04-25T12:16:06.827Z,99636.56
2023-04-25T12:19:33.879Z,99620.91
2023-04-25T12:22:56.733Z,99631.22
2023-04-25T12:26:22.013Z,99621.41
2023-04-25T12:29:53.511Z,99617.59
2023-04-25T12:33:15.620Z,99615.59
2023-04-25T12:36:37.666Z,99616.44
2023-04-25T12:39:59.616Z,99614.59
2023-04-25T12:43:22.989Z,99614.44
2023-04-25T12:46:44.689Z,99615.28
2023-04-25T12:50:07.306Z,99619.59
2023-04-25T12:53:29.069Z,99615.88
2023-04-25T12:56:51.429Z,99625.00
2023-04-25T13:00:19.117Z,99619.31
2023-04-25T13:03:41.628Z,99620.44
2023-04-25T13:07:04.634Z,99626.78
2023-04-25T13:10:26.327Z,99617.66
2023-04-25T13:13:47.985Z,99610.06
2023-04-25T13:17:11.576Z,99620.59
2023-04-25T13:20:33.553Z,99612.44
2023-04-25T13:23:55.801Z,99604.78
2023-04-25T13:27:17.568Z,99605.94
2023-04-25T13:30:39.318Z,99594.31
2023-04-25T13:34:02.929Z,99587.69
2023-04-25T13:37:25.334Z,99594.50
2023-04-25T13:40:47.058Z,99587.53
2023-04-25T13:44:08.909Z,99594.31
2023-04-25T13:47:31.293Z,99597.97
2023-04-25T13:50:54.385Z,99585.84
2023-04-25T13:54:15.818Z,99580.16
2023-04-25T13:57:39.340Z,99587.81
2023-04-25T14:01:02.940Z,99585.47
2023-04-25T14:04:25.002Z,99593.28
2023-04-25T14:07:48.479Z,99588.13
2023-04-25T14:11:10.779Z,99590.75
2023-04-25T14:14:32.853Z,99591.25
2023-04-25T14:17:55.027Z,99585.25
2023-04-25T14:21:17.346Z,99582.91
2023-04-25T14:24:40.590Z,99581.09
2023-04-25T14:28:02.592Z,99582.75
2023-04-25T14:31:24.352Z,99580.09
2023-04-25T14:34:46.808Z,99578.25
2023-04-25T14:38:08.974Z,99574.59
2023-04-25T14:41:32.209Z,99560.47
2023-04-25T14:44:53.747Z,99569.13
2023-04-25T14:48:16.156Z,99571.25
2023-04-25T14:51:37.794Z,99569.34
2023-04-25T14:55:01.176Z,99579.56
2023-04-25T14:58:24.398Z,99573.31
2023-04-25T15:01:46.624Z,99571.72
2023-04-25T15:05:09.926Z,99568.81
2023-04-25T15:08:31.613Z,99576.22
2023-04-25T15:11:53.794Z,99579.19
2023-04-25T15:15:25.364Z,99562.22
2023-04-25T15:18:48.128Z,99563.13
2023-04-25T15:22:09.840Z,99569.25
2023-04-25T15:25:31.503Z,99567.56
2023-04-25T15:28:53.811Z,99558.47
2023-04-25T15:32:17.515Z,99550.94
2023-04-25T15:35:39.390Z,99553.81
2023-04-25T15:39:01.373Z,99543.06
2023-04-25T15:42:23.114Z,99546.44
2023-04-25T15:45:45.806Z,99547.31
2023-04-25T15:49:09.031Z,99547.81
2023-04-25T15:52:31.335Z,99543.31
2023-04-25T15:55:53.519Z,99543.00
2023-04-25T15:59:15.713Z,99543.31
2023-04-25T16:02:37.771Z,99536.53
2023-04-25T16:06:00.817Z,99539.75
2023-04-25T16:09:22.970Z,99552.56
2023-04-25T16:12:45.031Z,99561.53
2023-04-25T16:16:07.214Z,99566.22
2023-04-25T16:19:29.203Z,99554.56
2023-04-25T16:22:52.352Z,99563.84
2023-04-25T16:26:14.232Z,99568.34
2023-04-25T16:29:36.101Z,99559.69
2023-04-25T16:32:58.304Z,99552.72
2023-04-25T16:36:20.139Z,99561.59
2023-04-25T16:39:43.614Z,99557.19
2023-04-25T16:43:05.490Z,99554.97
2023-04-25T16:46:27.813Z,99559.28
2023-04-25T16:49:49.505Z,99561.38
2023-04-25T16:53:11.570Z,99559.66
2023-04-25T16:56:34.930Z,99560.25
2023-04-25T16:59:56.844Z,99562.28
2023-04-25T17:03:18.729Z,99561.63
2023-04-25T17:06:40.910Z,99565.28
2023-04-25T17:10:02.649Z,99569.06
2023-04-25T17:13:30.785Z,99568.22
2023-04-25T17:16:53.175Z,99553.38
2023-04-25T17:20:15.204Z,99572.78
2023-04-25T17:23:37.369Z,99562.97
2023-04-25T17:26:59.159Z,99569.19
2023-04-25T17:30:23.739Z,99571.47
2023-04-25T17:33:45.689Z,99579.69
2023-04-25T17:37:08.156Z,99571.69
2023-04-25T17:40:30.679Z,99570.31
2023-04-25T17:43:52.573Z,99573.34
2023-04-25T17:47:15.772Z,99566.81
2023-04-25T17:50:37.711Z,99565.44
2023-04-25T17:53:59.742Z,99572.78
2023-04-25T17:57:22.909Z,99573.22
2023-04-25T18:00:45.157Z,99582.47
2023-04-25T18:04:12.545Z,99591.91
2023-04-25T18:07:34.112Z,99587.22
2023-04-25T18:10:57.131Z,99599.94
2023-04-25T18:14:20.526Z,99594.06
2023-04-25T18:17:42.603Z,99596.75
2023-04-25T18:21:07.952Z,99603.06
2023-04-25T18:24:29.955Z,99601.38
2023-04-25T18:27:54.588Z,99602.81
2023-04-25T18:31:17.492Z,99608.03
2023-04-25T18:34:41.650Z,99606.88
2023-04-25T18:38:05.145Z,99614.84
2023-04-25T18:41:52.086Z,99613.91
2023-04-25T18:45:11.159Z,99607.81
2023-04-25T18:48:33.432Z,99604.41
2023-04-25T18:51:57.565Z,99601.06
2023-04-25T18:55:21.357Z,99606.81
2023-04-25T18:58:43.770Z,99608.63
2023-04-25T19:02:05.862Z,99606.16
2023-04-25T19:05:28.064Z,99606.88
2023-04-25T19:08:51.360Z,99614.06
2023-04-25T19:12:14.588Z,99611.34
2023-04-25T19:15:36.206Z,99609.38
2023-04-25T19:18:58.273Z,99606.53
2023-04-25T19:22:20.416Z,99598.16
2023-04-25T19:30:25.318Z,99596.94
2023-04-25T19:33:47.350Z,99593.81
2023-04-25T19:37:09.468Z,99588.06
2023-04-25T19:40:31.412Z,99586.41
2023-04-25T19:43:53.279Z,99592.97
2023-04-25T19:47:16.876Z,99591.63
2023-04-25T19:50:38.782Z,99597.25
2023-04-25T19:54:00.456Z,99592.47
2023-04-25T19:57:22.184Z,99588.59
2023-04-25T20:05:35.494Z,99579.16
2023-04-25T20:08:57.610Z,99580.44
2023-04-25T20:12:19.702Z,99582.69
2023-04-25T20:15:41.607Z,99582.91
2023-04-25T20:19:04.436Z,99581.47
2023-04-25T20:22:28.812Z,99580.16
2023-04-25T20:25:50.699Z,99574.50
2023-04-25T20:29:12.428Z,99572.00
2023-04-25T20:32:34.499Z,99579.50
2023-04-25T20:35:55.990Z,99561.06
2023-04-25T20:39:19.616Z,99568.19
2023-04-25T20:42:41.414Z,99578.44
2023-04-25T20:46:04.034Z,99567.50
2023-04-25T20:49:26.160Z,99569.00
2023-04-25T20:52:48.083Z,99573.22
2023-04-25T20:56:13.004Z,99563.28
2023-04-25T20:59:34.969Z,99569.59
2023-04-25T21:02:57.982Z,99580.78
2023-04-25T21:06:20.779Z,99569.38
2023-04-25T21:09:44.040Z,99568.41
2023-04-25T21:13:07.550Z,99564.63
2023-04-25T21:16:34.951Z,99569.84
2023-04-25T21:19:57.223Z,99563.91
2023-04-25T21:23:19.631Z,99567.44
2023-04-25T21:26:41.186Z,99571.16
2023-04-25T21:30:05.225Z,99570.50
2023-04-25T21:33:26.896Z,99563.81
2023-04-25T21:36:48.620Z,99568.44
2023-04-25T21:40:11.504Z,99566.03
2023-04-25T21:43:33.622Z,99558.50
2023-04-25T21:46:56.782Z,99557.13
2023-04-25T21:50:19.585Z,99552.22
2023-04-25T21:53:42.343Z,99555.38
2023-04-25T21:57:04.431Z,99553.41
2023-04-25T22:00:27.837Z,99553.72
2023-04-25T22:03:51.068Z,99561.91
2023-04-25T22:07:12.874Z,99552.78
2023-04-25T22:10:34.334Z,99547.16
2023-04-25T22:13:56.035Z,99552.59
2023-04-25T22:17:19.111Z,99547.66
2023-04-25T22:20:44.330Z,99554.06
2023-04-25T22:24:06.371Z,99550.19
2023-04-25T22:27:28.542Z,99559.28
2023-04-25T22:30:50.579Z,99556.97
2023-04-25T22:34:13.650Z,99556.53
2023-04-25T22:37:36.998Z,99562.00
2023-04-25T22:40:58.762Z,99554.63
2023-04-25T22:44:22.242Z,99544.56
2023-04-25T22:47:43.875Z,99526.78
2023-04-25T22:51:06.762Z,99534.72
2023-04-25T22:54:29.843Z,99534.19
2023-04-25T22:57:51.756Z,99537.31
2023-04-25T23:01:13.469Z,99536.22
2023-04-25T23:04:36.613Z,99536.81
2023-04-25T23:07:59.223Z,99522.00
2023-04-25T23:11:23.932Z,99541.56
2023-04-25T23:14:45.934Z,99521.72
2023-04-25T23:18:07.848Z,99521.06
2023-04-25T23:21:29.698Z,99522.94
2023-04-25T23:24:51.824Z,99528.38
2023-04-25T23:28:15.149Z,99530.44
2023-04-25T23:31:37.702Z,99528.13
2023-04-25T23:34:59.619Z,99525.06
2023-04-25T23:38:21.633Z,99520.31
2023-04-25T23:41:43.425Z,99527.91
2023-04-25T23:45:08.573Z,99532.66
2023-04-25T23:48:30.562Z,99536.03
2023-04-25T23:51:52.355Z,99540.16
2023-04-25T23:55:14.801Z,99511.44
2023-04-25T23:58:36.784Z,99509.56
